aviador You're here:

PAMD Decoded Metar

MIDDLETON ISLAND in AK, USA
Report Time2018-06-18 19:03:00
UTC Time2018-06-18 19:08:40
Flight Rules lifr LIFR
Wind130° at 22 Gusting to 28 kt
W.Decomp.*RWY 13: 20.9 kt HW 6.8 kt LCW
RWY 20: 0.8 kt HW 22 kt LCW
W.Rank130° ranks 7
Current wind is above 130° avg. (12.6)
Visibility2414 m
Phenomena:Light Rain
Mist
Clouds:Overcast 002 Hf
Ceiling200 ft
Temp10°C (ISA -5)
Dew Point10°C (100% RH)
AAT2.1°C
QNH1011 hPa
Density Alt-308 ft
Elevation46 ft
Report Wrong Elevation
Raw Report
SPECI PAMD 181903Z AUTO 13022G28KT 1 1/2SM -RA BR OVC002 10/10 A2985
RMK AO2 PK WND 13028/1856 P0000=

Extra information for PAMD:More info

Metar Taf Metar & Taf Last 4 Metars F.Rules Stats Wind Profile Meteogram Temp Stats Airport Information Weather charts Add Link Nearby VenuesMetar ALERT Operation Metar Decoded Social comments

AIRNAV info for PAMD